sensor_id;sensor_type;location;lat;lon;timestamp;pressure;altitude;pressure_sealevel;temperature;humidity
75681;BME280;64294;49.176;16.626;2023-08-12T00:00:15;99902.22;;;14.64;100.00
75681;BME280;64294;49.176;16.626;2023-08-12T00:02:43;99909.94;;;14.63;100.00
75681;BME280;64294;49.176;16.626;2023-08-12T00:05:09;99908.94;;;14.53;100.00
75681;BME280;64294;49.176;16.626;2023-08-12T00:07:39;99903.72;;;14.44;100.00
75681;BME280;64294;49.176;16.626;2023-08-12T00:10:11;99911.66;;;14.45;100.00
75681;BME280;64294;49.176;16.626;2023-08-12T00:12:37;99907.84;;;14.43;100.00
75681;BME280;64294;49.176;16.626;2023-08-12T00:15:04;99906.13;;;14.40;100.00
75681;BME280;64294;49.176;16.626;2023-08-12T00:17:32;99909.13;;;14.55;100.00
75681;BME280;64294;49.176;16.626;2023-08-12T00:19:57;99908.63;;;14.64;100.00
75681;BME280;64294;49.176;16.626;2023-08-12T00:22:23;99911.66;;;14.66;100.00
75681;BME280;64294;49.176;16.626;2023-08-12T00:24:48;99895.19;;;14.57;100.00
75681;BME280;64294;49.176;16.626;2023-08-12T00:27:14;99890.84;;;14.56;100.00
75681;BME280;64294;49.176;16.626;2023-08-12T00:29:39;99901.25;;;14.61;100.00
75681;BME280;64294;49.176;16.626;2023-08-12T00:32:05;99906.41;;;14.49;100.00
75681;BME280;64294;49.176;16.626;2023-08-12T00:34:31;99907.97;;;14.50;100.00
75681;BME280;64294;49.176;16.626;2023-08-12T00:36:56;99901.88;;;14.46;100.00
75681;BME280;64294;49.176;16.626;2023-08-12T00:39:21;99911.47;;;14.43;100.00
75681;BME280;64294;49.176;16.626;2023-08-12T00:41:48;99911.56;;;14.51;100.00
75681;BME280;64294;49.176;16.626;2023-08-12T00:44:13;99906.22;;;14.47;100.00
75681;BME280;64294;49.176;16.626;2023-08-12T00:46:40;99908.03;;;14.58;100.00
75681;BME280;64294;49.176;16.626;2023-08-12T00:49:06;99903.88;;;14.59;100.00
75681;BME280;64294;49.176;16.626;2023-08-12T00:51:32;99912.16;;;14.57;100.00
75681;BME280;64294;49.176;16.626;2023-08-12T00:53:58;99901.66;;;14.65;100.00
75681;BME280;64294;49.176;16.626;2023-08-12T00:56:25;99903.53;;;14.63;100.00
75681;BME280;64294;49.176;16.626;2023-08-12T00:58:52;99901.47;;;14.63;100.00
75681;BME280;64294;49.176;16.626;2023-08-12T01:01:21;99903.19;;;14.66;100.00
75681;BME280;64294;49.176;16.626;2023-08-12T01:03:46;99898.97;;;14.60;100.00
75681;BME280;64294;49.176;16.626;2023-08-12T01:06:12;99896.00;;;14.65;100.00
75681;BME280;64294;49.176;16.626;2023-08-12T01:08:38;99895.06;;;14.63;100.00
75681;BME280;64294;49.176;16.626;2023-08-12T01:11:48;99901.25;;;14.61;100.00
75681;BME280;64294;49.176;16.626;2023-08-12T01:14:24;99893.28;;;14.52;100.00
75681;BME280;64294;49.176;16.626;2023-08-12T01:17:00;99894.03;;;14.52;100.00
75681;BME280;64294;49.176;16.626;2023-08-12T01:19:37;99896.31;;;14.54;100.00
75681;BME280;64294;49.176;16.626;2023-08-12T01:22:05;99902.19;;;14.43;100.00
75681;BME280;64294;49.176;16.626;2023-08-12T01:24:39;99895.28;;;14.31;100.00
75681;BME280;64294;49.176;16.626;2023-08-12T01:27:06;99903.97;;;14.33;100.00
75681;BME280;64294;49.176;16.626;2023-08-12T01:29:33;99915.25;;;14.46;100.00
75681;BME280;64294;49.176;16.626;2023-08-12T01:34:54;99908.53;;;14.36;100.00
75681;BME280;64294;49.176;16.626;2023-08-12T01:37:24;99895.72;;;14.35;100.00
75681;BME280;64294;49.176;16.626;2023-08-12T01:39:51;99905.50;;;14.34;100.00
75681;BME280;64294;49.176;16.626;2023-08-12T01:42:18;99904.22;;;14.21;100.00
75681;BME280;64294;49.176;16.626;2023-08-12T01:44:45;99900.13;;;14.09;100.00
75681;BME280;64294;49.176;16.626;2023-08-12T01:47:10;99905.22;;;14.11;100.00
75681;BME280;64294;49.176;16.626;2023-08-12T01:49:36;99905.91;;;14.04;100.00
75681;BME280;64294;49.176;16.626;2023-08-12T01:52:02;99915.50;;;14.01;100.00
75681;BME280;64294;49.176;16.626;2023-08-12T01:54:27;99908.66;;;13.96;100.00
75681;BME280;64294;49.176;16.626;2023-08-12T01:57:01;99911.03;;;13.92;100.00
75681;BME280;64294;49.176;16.626;2023-08-12T01:59:27;99923.44;;;13.89;100.00
75681;BME280;64294;49.176;16.626;2023-08-12T02:01:53;99923.13;;;13.79;100.00
75681;BME280;64294;49.176;16.626;2023-08-12T02:04:18;99924.88;;;13.69;100.00
75681;BME280;64294;49.176;16.626;2023-08-12T02:06:44;99916.75;;;13.66;100.00
75681;BME280;64294;49.176;16.626;2023-08-12T02:09:09;99901.53;;;13.69;100.00
75681;BME280;64294;49.176;16.626;2023-08-12T02:11:34;99902.84;;;13.68;100.00
75681;BME280;64294;49.176;16.626;2023-08-12T02:14:00;99902.06;;;13.67;100.00
75681;BME280;64294;49.176;16.626;2023-08-12T02:16:25;99908.81;;;13.64;100.00
75681;BME280;64294;49.176;16.626;2023-08-12T02:18:51;99902.75;;;13.60;100.00
75681;BME280;64294;49.176;16.626;2023-08-12T02:21:16;99900.25;;;13.43;100.00
75681;BME280;64294;49.176;16.626;2023-08-12T02:23:41;99896.88;;;13.45;100.00
75681;BME280;64294;49.176;16.626;2023-08-12T02:26:09;99900.88;;;13.36;100.00
75681;BME280;64294;49.176;16.626;2023-08-12T02:28:34;99901.56;;;13.29;100.00
75681;BME280;64294;49.176;16.626;2023-08-12T02:31:00;99900.69;;;13.34;100.00
75681;BME280;64294;49.176;16.626;2023-08-12T02:33:25;99897.31;;;13.22;100.00
75681;BME280;64294;49.176;16.626;2023-08-12T02:35:53;99894.56;;;13.17;100.00
75681;BME280;64294;49.176;16.626;2023-08-12T02:38:18;99897.72;;;13.13;100.00
75681;BME280;64294;49.176;16.626;2023-08-12T02:40:47;99897.38;;;13.17;100.00
75681;BME280;64294;49.176;16.626;2023-08-12T02:43:13;99896.41;;;13.14;100.00
75681;BME280;64294;49.176;16.626;2023-08-12T02:45:38;99888.91;;;13.17;100.00
75681;BME280;64294;49.176;16.626;2023-08-12T02:48:04;99887.19;;;13.14;100.00
75681;BME280;64294;49.176;16.626;2023-08-12T02:50:29;99883.06;;;13.01;100.00
75681;BME280;64294;49.176;16.626;2023-08-12T02:52:55;99886.50;;;12.94;100.00
75681;BME280;64294;49.176;16.626;2023-08-12T02:55:20;99879.22;;;12.99;100.00
75681;BME280;64294;49.176;16.626;2023-08-12T02:57:46;99875.09;;;13.00;100.00
75681;BME280;64294;49.176;16.626;2023-08-12T03:00:12;99878.81;;;12.95;100.00
75681;BME280;64294;49.176;16.626;2023-08-12T03:02:37;99887.16;;;13.00;100.00
75681;BME280;64294;49.176;16.626;2023-08-12T03:05:03;99880.66;;;12.92;100.00
75681;BME280;64294;49.176;16.626;2023-08-12T03:07:28;99879.44;;;12.88;100.00
75681;BME280;64294;49.176;16.626;2023-08-12T03:09:53;99880.22;;;12.88;100.00
75681;BME280;64294;49.176;16.626;2023-08-12T03:12:19;99892.13;;;12.81;100.00
75681;BME280;64294;49.176;16.626;2023-08-12T03:14:44;99889.84;;;12.80;100.00
75681;BME280;64294;49.176;16.626;2023-08-12T03:17:10;99886.25;;;12.79;100.00
75681;BME280;64294;49.176;16.626;2023-08-12T03:19:35;99882.34;;;12.82;100.00
75681;BME280;64294;49.176;16.626;2023-08-12T03:22:01;99884.09;;;12.72;100.00
75681;BME280;64294;49.176;16.626;2023-08-12T03:24:26;99889.72;;;12.72;100.00
75681;BME280;64294;49.176;16.626;2023-08-12T03:26:51;99892.13;;;12.81;100.00
75681;BME280;64294;49.176;16.626;2023-08-12T03:29:17;99893.63;;;12.82;100.00
75681;BME280;64294;49.176;16.626;2023-08-12T03:31:42;99898.50;;;12.82;100.00
75681;BME280;64294;49.176;16.626;2023-08-12T03:34:08;99897.13;;;12.88;100.00
75681;BME280;64294;49.176;16.626;2023-08-12T03:36:33;99904.97;;;13.09;100.00
75681;BME280;64294;49.176;16.626;2023-08-12T03:38:59;99894.78;;;13.06;100.00
75681;BME280;64294;49.176;16.626;2023-08-12T03:41:24;99894.88;;;13.13;100.00
75681;BME280;64294;49.176;16.626;2023-08-12T03:43:49;99898.13;;;13.17;100.00
75681;BME280;64294;49.176;16.626;2023-08-12T03:46:16;99892.59;;;13.12;100.00
75681;BME280;64294;49.176;16.626;2023-08-12T03:48:42;99891.84;;;13.11;100.00
75681;BME280;64294;49.176;16.626;2023-08-12T03:51:07;99893.03;;;13.16;100.00
75681;BME280;64294;49.176;16.626;2023-08-12T03:53:33;99891.53;;;13.15;100.00
75681;BME280;64294;49.176;16.626;2023-08-12T03:55:58;99898.28;;;13.25;100.00
75681;BME280;64294;49.176;16.626;2023-08-12T03:58:23;99904.91;;;13.27;100.00
75681;BME280;64294;49.176;16.626;2023-08-12T04:00:49;99900.25;;;13.30;100.00
75681;BME280;64294;49.176;16.626;2023-08-12T04:03:14;99895.69;;;13.27;100.00
75681;BME280;64294;49.176;16.626;2023-08-12T04:05:52;99896.66;;;13.29;100.00
75681;BME280;64294;49.176;16.626;2023-08-12T04:08:19;99902.19;;;13.35;100.00
75681;BME280;64294;49.176;16.626;2023-08-12T04:10:47;99899.81;;;13.39;100.00
75681;BME280;64294;49.176;16.626;2023-08-12T04:13:13;99903.06;;;13.43;100.00
75681;BME280;64294;49.176;16.626;2023-08-12T04:15:39;99891.78;;;13.43;100.00
75681;BME280;64294;49.176;16.626;2023-08-12T04:18:05;99905.47;;;13.39;100.00
75681;BME280;64294;49.176;16.626;2023-08-12T04:20:31;99897.22;;;13.41;100.00
75681;BME280;64294;49.176;16.626;2023-08-12T04:22:56;99899.91;;;13.47;100.00
75681;BME280;64294;49.176;16.626;2023-08-12T04:25:22;99895.88;;;13.55;100.00
75681;BME280;64294;49.176;16.626;2023-08-12T04:27:48;99904.91;;;13.54;100.00
75681;BME280;64294;49.176;16.626;2023-08-12T04:30:15;99905.34;;;13.45;100.00
75681;BME280;64294;49.176;16.626;2023-08-12T04:32:41;99902.19;;;13.61;100.00
75681;BME280;64294;49.176;16.626;2023-08-12T04:35:06;99914.34;;;13.70;100.00
75681;BME280;64294;49.176;16.626;2023-08-12T04:37:32;99915.97;;;13.65;100.00
75681;BME280;64294;49.176;16.626;2023-08-12T04:39:58;99914.88;;;13.68;100.00
75681;BME280;64294;49.176;16.626;2023-08-12T04:42:23;99919.78;;;13.68;100.00
75681;BME280;64294;49.176;16.626;2023-08-12T04:44:49;99910.00;;;13.82;100.00
75681;BME280;64294;49.176;16.626;2023-08-12T04:47:15;99914.88;;;13.94;100.00
75681;BME280;64294;49.176;16.626;2023-08-12T04:49:40;99918.31;;;14.01;100.00
75681;BME280;64294;49.176;16.626;2023-08-12T04:52:06;99903.81;;;14.17;100.00
75681;BME280;64294;49.176;16.626;2023-08-12T04:54:32;99902.72;;;14.20;100.00
75681;BME280;64294;49.176;16.626;2023-08-12T04:56:58;99906.50;;;14.23;100.00
75681;BME280;64294;49.176;16.626;2023-08-12T04:59:24;99905.16;;;14.37;100.00
75681;BME280;64294;49.176;16.626;2023-08-12T05:01:50;99901.75;;;14.52;100.00
75681;BME280;64294;49.176;16.626;2023-08-12T05:04:18;99901.25;;;14.61;100.00
75681;BME280;64294;49.176;16.626;2023-08-12T05:06:44;99909.88;;;14.76;100.00
75681;BME280;64294;49.176;16.626;2023-08-12T05:09:09;99906.09;;;14.95;100.00
75681;BME280;64294;49.176;16.626;2023-08-12T05:11:35;99905.00;;;15.05;100.00
75681;BME280;64294;49.176;16.626;2023-08-12T05:14:01;99915.28;;;15.16;100.00
75681;BME280;64294;49.176;16.626;2023-08-12T05:16:27;99909.00;;;15.31;100.00
75681;BME280;64294;49.176;16.626;2023-08-12T05:18:52;99913.16;;;15.37;100.00
75681;BME280;64294;49.176;16.626;2023-08-12T05:21:18;99910.25;;;15.51;100.00
75681;BME280;64294;49.176;16.626;2023-08-12T05:23:43;99909.44;;;15.71;100.00
75681;BME280;64294;49.176;16.626;2023-08-12T05:26:08;99912.72;;;15.90;100.00
75681;BME280;64294;49.176;16.626;2023-08-12T05:28:34;99910.91;;;16.08;100.00
75681;BME280;64294;49.176;16.626;2023-08-12T05:30:59;99918.91;;;16.25;99.03
75681;BME280;64294;49.176;16.626;2023-08-12T05:33:25;99921.00;;;16.32;97.89
75681;BME280;64294;49.176;16.626;2023-08-12T05:35:51;99921.59;;;16.53;97.13
75681;BME280;64294;49.176;16.626;2023-08-12T05:38:16;99914.59;;;16.54;96.45
75681;BME280;64294;49.176;16.626;2023-08-12T05:40:42;99922.41;;;16.69;95.61
75681;BME280;64294;49.176;16.626;2023-08-12T05:43:07;99924.88;;;16.88;93.88
75681;BME280;64294;49.176;16.626;2023-08-12T05:45:33;99928.88;;;17.15;91.73
75681;BME280;64294;49.176;16.626;2023-08-12T05:47:59;99924.09;;;17.41;89.71
75681;BME280;64294;49.176;16.626;2023-08-12T05:50:24;99922.34;;;17.61;89.19
75681;BME280;64294;49.176;16.626;2023-08-12T05:52:49;99914.78;;;17.71;87.85
75681;BME280;64294;49.176;16.626;2023-08-12T05:55:15;99920.75;;;17.98;85.93
75681;BME280;64294;49.176;16.626;2023-08-12T05:57:43;99910.81;;;18.14;85.67
75681;BME280;64294;49.176;16.626;2023-08-12T06:00:09;99914.25;;;18.45;83.92
75681;BME280;64294;49.176;16.626;2023-08-12T06:02:35;99913.72;;;18.71;82.12
75681;BME280;64294;49.176;16.626;2023-08-12T06:05:01;99921.03;;;18.82;82.06
75681;BME280;64294;49.176;16.626;2023-08-12T06:07:27;99914.06;;;19.00;79.99
75681;BME280;64294;49.176;16.626;2023-08-12T06:09:52;99904.03;;;19.17;78.85
75681;BME280;64294;49.176;16.626;2023-08-12T06:12:18;99913.75;;;19.56;77.62
75681;BME280;64294;49.176;16.626;2023-08-12T06:14:43;99916.84;;;19.85;74.19
75681;BME280;64294;49.176;16.626;2023-08-12T06:17:09;99916.66;;;19.83;74.63
75681;BME280;64294;49.176;16.626;2023-08-12T06:19:34;99922.19;;;19.98;73.71
75681;BME280;64294;49.176;16.626;2023-08-12T06:22:00;99908.09;;;20.44;72.79
75681;BME280;64294;49.176;16.626;2023-08-12T06:24:25;99908.28;;;20.46;70.68
75681;BME280;64294;49.176;16.626;2023-08-12T06:26:51;99907.97;;;21.25;70.29
75681;BME280;64294;49.176;16.626;2023-08-12T06:29:17;99909.38;;;21.63;68.15
75681;BME280;64294;49.176;16.626;2023-08-12T06:31:42;99897.16;;;22.20;69.26
75681;BME280;64294;49.176;16.626;2023-08-12T06:34:07;99893.97;;;22.66;63.69
75681;BME280;64294;49.176;16.626;2023-08-12T06:36:33;99899.38;;;23.77;57.46
75681;BME280;64294;49.176;16.626;2023-08-12T06:38:58;99889.06;;;24.73;53.21
75681;BME280;64294;49.176;16.626;2023-08-12T06:41:24;99889.47;;;27.33;46.87
75681;BME280;64294;49.176;16.626;2023-08-12T06:43:49;99887.72;;;28.44;42.56
75681;BME280;64294;49.176;16.626;2023-08-12T06:46:15;99878.00;;;29.16;40.57
75681;BME280;64294;49.176;16.626;2023-08-12T06:48:40;99872.59;;;30.29;38.85
75681;BME280;64294;49.176;16.626;2023-08-12T06:51:05;99869.03;;;32.37;35.68
75681;BME280;64294;49.176;16.626;2023-08-12T06:53:36;99868.84;;;32.55;35.18
75681;BME280;64294;49.176;16.626;2023-08-12T06:56:02;99864.31;;;34.12;32.94
75681;BME280;64294;49.176;16.626;2023-08-12T06:58:28;99866.75;;;34.89;31.13
75681;BME280;64294;49.176;16.626;2023-08-12T07:00:54;99858.84;;;34.28;30.15
75681;BME280;64294;49.176;16.626;2023-08-12T07:03:21;99850.53;;;34.82;29.77
75681;BME280;64294;49.176;16.626;2023-08-12T07:05:47;99856.56;;;33.92;30.51
75681;BME280;64294;49.176;16.626;2023-08-12T07:08:12;99850.78;;;35.73;28.99
75681;BME280;64294;49.176;16.626;2023-08-12T07:10:44;99849.41;;;35.78;27.29
75681;BME280;64294;49.176;16.626;2023-08-12T07:13:09;99849.63;;;37.72;25.82
75681;BME280;64294;49.176;16.626;2023-08-12T07:15:35;99838.72;;;37.78;25.72
75681;BME280;64294;49.176;16.626;2023-08-12T07:18:00;99845.38;;;36.01;27.80
75681;BME280;64294;49.176;16.626;2023-08-12T07:20:26;99840.75;;;35.42;28.50
75681;BME280;64294;49.176;16.626;2023-08-12T07:22:52;99847.38;;;37.64;25.88
75681;BME280;64294;49.176;16.626;2023-08-12T07:25:17;99854.59;;;38.54;24.73
75681;BME280;64294;49.176;16.626;2023-08-12T07:27:43;99846.69;;;37.72;24.58
75681;BME280;64294;49.176;16.626;2023-08-12T07:30:09;99840.09;;;38.97;23.61
75681;BME280;64294;49.176;16.626;2023-08-12T07:32:38;99836.38;;;38.86;23.68
75681;BME280;64294;49.176;16.626;2023-08-12T07:35:05;99837.72;;;38.57;24.18
75681;BME280;64294;49.176;16.626;2023-08-12T07:37:33;99837.25;;;39.31;23.18
75681;BME280;64294;49.176;16.626;2023-08-12T07:39:59;99832.72;;;41.75;21.65
75681;BME280;64294;49.176;16.626;2023-08-12T07:42:24;99833.72;;;42.21;20.80
75681;BME280;64294;49.176;16.626;2023-08-12T07:44:50;99831.84;;;40.87;21.87
75681;BME280;64294;49.176;16.626;2023-08-12T07:47:16;99835.22;;;41.38;20.97
75681;BME280;64294;49.176;16.626;2023-08-12T07:49:42;99830.19;;;42.06;20.04
75681;BME280;64294;49.176;16.626;2023-08-12T07:52:09;99834.31;;;39.88;22.25
75681;BME280;64294;49.176;16.626;2023-08-12T07:54:35;99844.56;;;39.10;22.94
75681;BME280;64294;49.176;16.626;2023-08-12T07:57:01;99832.75;;;40.40;22.09
75681;BME280;64294;49.176;16.626;2023-08-12T07:59:31;99829.69;;;40.73;21.75
75681;BME280;64294;49.176;16.626;2023-08-12T08:01:57;99829.88;;;39.38;22.39
75681;BME280;64294;49.176;16.626;2023-08-12T08:04:22;99818.88;;;39.53;23.08
75681;BME280;64294;49.176;16.626;2023-08-12T08:06:47;99816.41;;;40.70;22.34
75681;BME280;64294;49.176;16.626;2023-08-12T08:09:13;99816.88;;;41.25;21.75
75681;BME280;64294;49.176;16.626;2023-08-12T08:11:38;99815.13;;;40.22;22.74
75681;BME280;64294;49.176;16.626;2023-08-12T08:14:04;99822.56;;;39.99;22.82
75681;BME280;64294;49.176;16.626;2023-08-12T08:16:29;99818.03;;;42.37;20.75
75681;BME280;64294;49.176;16.626;2023-08-12T08:18:55;99825.19;;;38.48;23.79
75681;BME280;64294;49.176;16.626;2023-08-12T08:21:20;99811.81;;;41.05;21.84
75681;BME280;64294;49.176;16.626;2023-08-12T08:23:45;99818.88;;;39.82;23.38
75681;BME280;64294;49.176;16.626;2023-08-12T08:26:12;99815.19;;;39.73;23.88
75681;BME280;64294;49.176;16.626;2023-08-12T08:28:38;99813.72;;;39.72;24.44
75681;BME280;64294;49.176;16.626;2023-08-12T08:31:03;99812.81;;;40.57;22.41
75681;BME280;64294;49.176;16.626;2023-08-12T08:33:29;99803.03;;;42.59;20.44
75681;BME280;64294;49.176;16.626;2023-08-12T08:35:54;99812.00;;;40.71;22.57
75681;BME280;64294;49.176;16.626;2023-08-12T08:38:20;99811.13;;;41.01;22.24
75681;BME280;64294;49.176;16.626;2023-08-12T08:40:45;99798.44;;;42.07;20.84
75681;BME280;64294;49.176;16.626;2023-08-12T08:43:15;99802.75;;;42.79;20.22
75681;BME280;64294;49.176;16.626;2023-08-12T08:45:44;99803.78;;;40.96;21.94
75681;BME280;64294;49.176;16.626;2023-08-12T08:48:11;99804.72;;;40.58;21.91
75681;BME280;64294;49.176;16.626;2023-08-12T08:50:37;99815.03;;;40.59;21.48
75681;BME280;64294;49.176;16.626;2023-08-12T08:53:06;99805.75;;;37.84;24.65
75681;BME280;64294;49.176;16.626;2023-08-12T08:55:31;99806.72;;;41.92;20.54
75681;BME280;64294;49.176;16.626;2023-08-12T08:57:57;99800.81;;;42.59;20.22
75681;BME280;64294;49.176;16.626;2023-08-12T09:00:23;99802.19;;;42.01;20.49
75681;BME280;64294;49.176;16.626;2023-08-12T09:02:50;99797.88;;;43.09;20.41
75681;BME280;64294;49.176;16.626;2023-08-12T09:05:17;99796.75;;;43.37;19.89
75681;BME280;64294;49.176;16.626;2023-08-12T09:07:43;99802.63;;;43.39;19.88
75681;BME280;64294;49.176;16.626;2023-08-12T09:10:10;99810.00;;;42.31;20.58
75681;BME280;64294;49.176;16.626;2023-08-12T09:12:37;99801.03;;;42.99;20.12
75681;BME280;64294;49.176;16.626;2023-08-12T09:15:03;99803.00;;;43.12;20.17
75681;BME280;64294;49.176;16.626;2023-08-12T09:17:29;99803.47;;;43.33;19.88
75681;BME280;64294;49.176;16.626;2023-08-12T09:19:55;99796.19;;;42.13;20.30
75681;BME280;64294;49.176;16.626;2023-08-12T09:22:26;99806.63;;;42.00;21.19
75681;BME280;64294;49.176;16.626;2023-08-12T09:24:58;99791.88;;;41.98;21.61
75681;BME280;64294;49.176;16.626;2023-08-12T09:27:24;99791.03;;;43.66;19.66
75681;BME280;64294;49.176;16.626;2023-08-12T09:29:55;99792.84;;;43.01;19.91
75681;BME280;64294;49.176;16.626;2023-08-12T09:32:21;99785.63;;;41.57;21.10
75681;BME280;64294;49.176;16.626;2023-08-12T09:34:55;99782.72;;;43.35;19.45
75681;BME280;64294;49.176;16.626;2023-08-12T09:37:22;99774.53;;;42.88;19.88
75681;BME280;64294;49.176;16.626;2023-08-12T09:39:59;99770.13;;;42.85;19.62
75681;BME280;64294;49.176;16.626;2023-08-12T09:42:24;99771.69;;;43.30;19.31
75681;BME280;64294;49.176;16.626;2023-08-12T09:44:53;99761.44;;;42.16;19.84
75681;BME280;64294;49.176;16.626;2023-08-12T09:47:18;99765.16;;;39.97;22.32
75681;BME280;64294;49.176;16.626;2023-08-12T09:49:44;99763.84;;;41.97;20.74
75681;BME280;64294;49.176;16.626;2023-08-12T09:52:10;99758.41;;;40.42;22.13
75681;BME280;64294;49.176;16.626;2023-08-12T09:54:35;99753.38;;;41.36;21.37
75681;BME280;64294;49.176;16.626;2023-08-12T09:57:02;99745.66;;;40.80;21.57
75681;BME280;64294;49.176;16.626;2023-08-12T09:59:31;99749.44;;;41.60;20.89
75681;BME280;64294;49.176;16.626;2023-08-12T10:02:01;99752.59;;;42.71;20.66
75681;BME280;64294;49.176;16.626;2023-08-12T10:04:40;99749.34;;;41.74;20.86
75681;BME280;64294;49.176;16.626;2023-08-12T10:07:08;99742.03;;;42.86;19.34
75681;BME280;64294;49.176;16.626;2023-08-12T10:09:36;99743.16;;;43.94;19.22
75681;BME280;64294;49.176;16.626;2023-08-12T10:12:03;99753.53;;;43.09;18.83
75681;BME280;64294;49.176;16.626;2023-08-12T10:14:29;99742.00;;;40.71;20.80
75681;BME280;64294;49.176;16.626;2023-08-12T10:16:55;99735.66;;;40.12;20.83
75681;BME280;64294;49.176;16.626;2023-08-12T10:19:23;99740.19;;;39.68;21.42
75681;BME280;64294;49.176;16.626;2023-08-12T10:21:54;99729.44;;;40.85;20.21
75681;BME280;64294;49.176;16.626;2023-08-12T10:24:20;99735.72;;;40.04;21.44
75681;BME280;64294;49.176;16.626;2023-08-12T10:26:46;99739.66;;;40.98;20.64
75681;BME280;64294;49.176;16.626;2023-08-12T10:29:13;99732.72;;;40.14;21.81
75681;BME280;64294;49.176;16.626;2023-08-12T10:31:38;99729.88;;;41.24;21.67
75681;BME280;64294;49.176;16.626;2023-08-12T10:34:05;99733.88;;;40.78;21.45
75681;BME280;64294;49.176;16.626;2023-08-12T10:36:31;99731.31;;;38.64;23.67
75681;BME280;64294;49.176;16.626;2023-08-12T10:38:57;99734.75;;;40.56;21.92
75681;BME280;64294;49.176;16.626;2023-08-12T10:41:24;99739.56;;;41.08;21.50
75681;BME280;64294;49.176;16.626;2023-08-12T10:43:59;99733.91;;;40.76;22.04
75681;BME280;64294;49.176;16.626;2023-08-12T10:46:32;99727.31;;;41.65;20.54
75681;BME280;64294;49.176;16.626;2023-08-12T10:49:02;99727.13;;;41.82;20.77
75681;BME280;64294;49.176;16.626;2023-08-12T10:54:16;99713.56;;;40.15;21.23
75681;BME280;64294;49.176;16.626;2023-08-12T11:02:31;99705.53;;;38.46;23.61
75681;BME280;64294;49.176;16.626;2023-08-12T11:07:38;99705.56;;;39.97;21.73
75681;BME280;64294;49.176;16.626;2023-08-12T11:10:16;99700.38;;;40.04;21.89
75681;BME280;64294;49.176;16.626;2023-08-12T11:15:44;99701.97;;;39.54;22.00
75681;BME280;64294;49.176;16.626;2023-08-12T11:18:18;99698.81;;;40.25;22.51
75681;BME280;64294;49.176;16.626;2023-08-12T11:20:45;99696.75;;;38.51;22.48
75681;BME280;64294;49.176;16.626;2023-08-12T11:23:12;99692.44;;;39.21;22.36
75681;BME280;64294;49.176;16.626;2023-08-12T11:25:42;99690.09;;;39.92;21.48
75681;BME280;64294;49.176;16.626;2023-08-12T11:28:09;99685.81;;;39.36;22.79
75681;BME280;64294;49.176;16.626;2023-08-12T11:30:34;99678.06;;;40.53;21.31
75681;BME280;64294;49.176;16.626;2023-08-12T11:33:01;99683.59;;;38.96;22.54
75681;BME280;64294;49.176;16.626;2023-08-12T11:35:27;99676.84;;;38.29;23.15
75681;BME280;64294;49.176;16.626;2023-08-12T11:37:56;99668.19;;;38.69;22.61
75681;BME280;64294;49.176;16.626;2023-08-12T11:40:23;99655.56;;;39.83;22.00
75681;BME280;64294;49.176;16.626;2023-08-12T11:42:49;99668.91;;;38.80;23.88
75681;BME280;64294;49.176;16.626;2023-08-12T11:45:20;99656.25;;;36.93;24.11
75681;BME280;64294;49.176;16.626;2023-08-12T11:47:45;99668.88;;;37.18;25.03
75681;BME280;64294;49.176;16.626;2023-08-12T11:50:18;99672.34;;;37.95;23.97
75681;BME280;64294;49.176;16.626;2023-08-12T11:52:44;99659.47;;;37.32;24.79
75681;BME280;64294;49.176;16.626;2023-08-12T11:55:09;99669.34;;;37.83;23.70
75681;BME280;64294;49.176;16.626;2023-08-12T11:57:41;99659.09;;;37.92;24.13
75681;BME280;64294;49.176;16.626;2023-08-12T12:00:09;99652.63;;;38.22;23.40
75681;BME280;64294;49.176;16.626;2023-08-12T12:02:50;99641.72;;;38.84;23.49
75681;BME280;64294;49.176;16.626;2023-08-12T12:05:17;99646.81;;;38.32;23.70
75681;BME280;64294;49.176;16.626;2023-08-12T12:07:43;99651.13;;;36.97;24.64
75681;BME280;64294;49.176;16.626;2023-08-12T12:10:13;99643.28;;;37.24;25.54
75681;BME280;64294;49.176;16.626;2023-08-12T12:12:48;99638.59;;;37.96;24.64
75681;BME280;64294;49.176;16.626;2023-08-12T12:15:14;99640.09;;;36.88;26.14
75681;BME280;64294;49.176;16.626;2023-08-12T12:17:42;99628.91;;;35.45;27.71
75681;BME280;64294;49.176;16.626;2023-08-12T12:20:08;99639.91;;;36.03;25.71
75681;BME280;64294;49.176;16.626;2023-08-12T12:22:37;99620.16;;;35.47;26.72
75681;BME280;64294;49.176;16.626;2023-08-12T12:25:08;99626.91;;;35.09;27.92
75681;BME280;64294;49.176;16.626;2023-08-12T12:27:34;99624.09;;;34.73;27.05
75681;BME280;64294;49.176;16.626;2023-08-12T12:30:03;99620.56;;;35.75;25.38
75681;BME280;64294;49.176;16.626;2023-08-12T12:32:28;99620.44;;;35.67;26.40
75681;BME280;64294;49.176;16.626;2023-08-12T12:34:54;99618.88;;;35.58;27.31
75681;BME280;64294;49.176;16.626;2023-08-12T12:37:20;99620.41;;;34.71;27.33
75681;BME280;64294;49.176;16.626;2023-08-12T12:39:46;99612.56;;;34.81;28.15
75681;BME280;64294;49.176;16.626;2023-08-12T12:42:12;99600.69;;;33.57;27.99
75681;BME280;64294;49.176;16.626;2023-08-12T12:44:37;99603.75;;;33.65;28.97
75681;BME280;64294;49.176;16.626;2023-08-12T12:47:05;99594.81;;;34.27;28.29
75681;BME280;64294;49.176;16.626;2023-08-12T12:49:30;99599.31;;;33.62;28.02
75681;BME280;64294;49.176;16.626;2023-08-12T12:51:56;99600.91;;;32.45;29.90
75681;BME280;64294;49.176;16.626;2023-08-12T12:54:21;99609.41;;;32.11;31.09
75681;BME280;64294;49.176;16.626;2023-08-12T12:56:47;99612.53;;;32.45;31.11
75681;BME280;64294;49.176;16.626;2023-08-12T12:59:13;99604.47;;;31.66;32.39